Time;durP1;ratioP1;P1;durP2;ratioP2;P2;SDS_P1;SDS_P2;PMS_P1;PMS_P2;Temp;Humidity;BMP_temperature;BMP_pressure;BME280_temperature;BME280_humidity;BME280_pressure;Samples;Min_cycle;Max_cycle;Signal;HPM_P1;HPM_P2
2024/03/04 00:00:29;;;;;;;22.75;12.82;;;;;;;;;;5007863;28;20058;-70
2024/03/04 00:02:55;;;;;;;19.58;12.07;;;;;;;;;;5003815;28;20383;-70
2024/03/04 00:05:21;;;;;;;18.83;12.18;;;;;;;;;;5012574;28;20443;-70
2024/03/04 00:07:47;;;;;;;20.73;13.23;;;;;;;;;;5013143;28;20025;-70
2024/03/04 00:10:13;;;;;;;21.42;12.75;;;;;;;;;;5010890;28;20026;-70
2024/03/04 00:12:39;;;;;;;21.17;12.98;;;;;;;;;;5012893;28;20028;-70
2024/03/04 00:15:05;;;;;;;22.08;12.10;;;;;;;;;;5013070;28;20024;-70
2024/03/04 00:17:31;;;;;;;20.50;12.45;;;;;;;;;;5012655;28;20021;-70
2024/03/04 00:19:57;;;;;;;21.70;13.57;;;;;;;;;;5013159;28;20029;-70
2024/03/04 00:22:23;;;;;;;21.10;12.93;;;;;;;;;;5011809;28;20034;-70
2024/03/04 00:24:49;;;;;;;23.10;14.18;;;;;;;;;;5012134;28;20026;-70
2024/03/04 00:27:15;;;;;;;19.90;12.45;;;;;;;;;;5010355;28;20083;-70
2024/03/04 00:29:41;;;;;;;20.27;12.75;;;;;;;;;;5012836;28;20050;-70
2024/03/04 00:32:07;;;;;;;21.58;13.93;;;;;;;;;;5013212;28;20026;-70
2024/03/04 00:34:33;;;;;;;24.13;15.35;;;;;;;;;;5012133;28;20188;-70
2024/03/04 00:36:59;;;;;;;22.98;13.93;;;;;;;;;;5012937;28;20780;-70
2024/03/04 00:39:25;;;;;;;25.50;13.43;;;;;;;;;;5011694;28;20026;-70
2024/03/04 00:41:51;;;;;;;27.05;15.32;;;;;;;;;;4994981;28;20022;-70
2024/03/04 00:44:18;;;;;;;23.08;13.52;;;;;;;;;;5011962;28;20033;-70
2024/03/04 00:46:45;;;;;;;21.73;13.88;;;;;;;;;;5012814;28;20026;-69
2024/03/04 00:49:11;;;;;;;21.65;12.80;;;;;;;;;;5012880;28;20018;-69
2024/03/04 00:51:37;;;;;;;22.77;12.25;;;;;;;;;;5011431;28;20026;-70
2024/03/04 00:54:03;;;;;;;22.50;13.93;;;;;;;;;;5010529;28;20069;-70
2024/03/04 00:56:30;;;;;;;23.05;14.10;;;;;;;;;;5011118;28;20014;-70
2024/03/04 00:58:56;;;;;;;26.05;15.20;;;6.20;99.90;;;;;;5012292;28;20357;-70
2024/03/04 01:01:23;;;;;;;24.83;16.30;;;6.10;99.90;;;;;;5008764;28;20033;-70
2024/03/04 01:03:48;;;;;;;21.70;14.13;;;6.10;99.90;;;;;;5012266;28;20121;-69
2024/03/04 01:06:14;;;;;;;22.60;14.88;;;6.10;99.90;;;;;;5011325;28;20105;-70
2024/03/04 01:08:39;;;;;;;23.92;14.65;;;6.00;99.90;;;;;;5011373;28;20028;-69
2024/03/04 01:11:05;;;;;;;21.85;13.43;;;6.00;99.90;;;;;;5011208;28;20026;-69
2024/03/04 01:13:32;;;;;;;26.10;14.93;;;5.90;99.90;;;;;;5009996;28;20128;-69
2024/03/04 01:15:58;;;;;;;23.67;14.02;;;5.90;99.90;;;;;;5011155;28;20631;-69
2024/03/04 01:18:24;;;;;;;22.17;13.43;;;5.90;99.90;;;;;;5011453;28;20029;-69
2024/03/04 01:20:52;;;;;;;25.90;14.43;;;5.90;99.90;;;;;;5010949;28;20101;-69
2024/03/04 01:23:18;;;;;;;22.67;14.70;;;5.90;99.90;;;;;;5011423;28;20036;-70
2024/03/04 01:25:44;;;;;;;24.90;14.70;;;5.90;99.90;;;;;;5011607;28;20025;-69
2024/03/04 01:28:11;;;;;;;24.13;15.25;;;5.90;99.90;;;;;;5009350;28;20026;-69
2024/03/04 01:30:37;;;;;;;23.75;15.00;;;5.90;99.90;;;;;;5011174;28;20021;-70
2024/03/04 01:33:06;;;;;;;23.92;14.85;;;5.90;99.90;;;;;;5011407;28;20040;-69
2024/03/04 01:35:33;;;;;;;24.77;14.93;;;5.90;99.90;;;;;;5010813;28;20041;-69
2024/03/04 01:37:59;;;;;;;24.17;15.30;;;5.90;99.90;;;;;;5011741;28;20022;-69
2024/03/04 01:40:25;;;;;;;25.23;15.27;;;5.80;99.90;;;;;;5010577;28;20092;-69
2024/03/04 01:42:54;;;;;;;22.60;14.88;;;5.80;99.90;;;;;;5011494;28;20696;-69
2024/03/04 01:45:23;;;;;;;21.08;14.20;;;5.80;99.90;;;;;;5010508;28;20022;-69
2024/03/04 01:48:09;;;;;;;26.40;15.27;;;5.80;99.90;;;;;;5011724;28;20394;-69
2024/03/04 01:50:37;;;;;;;29.67;15.55;;;5.80;99.90;;;;;;5010645;28;20033;-69
2024/03/04 01:53:04;;;;;;;26.10;15.23;;;5.70;99.90;;;;;;5008968;28;20058;-69
2024/03/04 01:55:55;;;;;;;26.27;15.32;;;5.80;99.90;;;;;;5010273;28;20422;-69
2024/03/04 01:58:22;;;;;;;26.17;15.48;;;5.70;99.90;;;;;;5006378;28;20061;-69
2024/03/04 02:00:51;;;;;;;21.70;13.77;;;5.70;99.90;;;;;;5008606;28;20500;-69
2024/03/04 02:03:18;;;;;;;25.77;15.27;;;5.70;99.90;;;;;;5010318;28;20056;-69
2024/03/04 02:05:45;;;;;;;26.50;16.33;;;5.70;99.90;;;;;;5010287;28;20433;-70
2024/03/04 02:08:12;;;;;;;25.00;14.57;;;5.70;99.90;;;;;;5011471;28;20028;-69
2024/03/04 02:10:38;;;;;;;22.38;13.68;;;5.70;99.90;;;;;;5008738;28;20239;-69
2024/03/04 02:13:05;;;;;;;26.13;14.55;;;5.70;99.90;;;;;;5011149;28;20026;-69
2024/03/04 02:15:37;;;;;;;23.65;14.60;;;5.70;99.90;;;;;;5009957;28;20037;-69
2024/03/04 02:18:05;;;;;;;24.63;14.25;;;5.60;99.90;;;;;;5011109;28;20049;-69
2024/03/04 02:20:36;;;;;;;23.05;13.77;;;5.60;99.90;;;;;;4992029;28;20420;-69
2024/03/04 02:23:03;;;;;;;25.50;15.15;;;5.50;99.90;;;;;;5009806;28;20367;-69
2024/03/04 02:25:35;;;;;;;24.30;14.70;;;5.50;99.90;;;;;;5009478;28;20033;-69
2024/03/04 02:28:02;;;;;;;23.38;14.25;;;5.40;99.90;;;;;;5008346;28;20383;-69
2024/03/04 02:30:28;;;;;;;23.00;15.10;;;5.40;99.90;;;;;;5009774;28;20473;-69
2024/03/04 02:32:54;;;;;;;25.50;15.63;;;5.40;99.90;;;;;;5010507;28;20036;-69
2024/03/04 02:35:20;;;;;;;27.50;15.70;;;5.40;99.90;;;;;;5009759;28;20025;-69
2024/03/04 02:37:45;;;;;;;26.00;14.48;;;5.30;99.90;;;;;;5010959;28;20048;-69
2024/03/04 02:40:11;;;;;;;24.23;15.55;;;5.30;99.90;;;;;;5009672;28;20022;-69
2024/03/04 02:42:38;;;;;;;22.52;14.70;;;5.30;99.90;;;;;;5010167;28;20025;-69
2024/03/04 02:45:05;;;;;;;25.35;14.70;;;5.30;99.90;;;;;;5010368;28;20064;-69
2024/03/04 02:47:31;;;;;;;28.15;16.13;;;5.40;99.90;;;;;;5010145;28;20022;-69
2024/03/04 02:49:56;;;;;;;24.02;15.00;;;5.40;99.90;;;;;;5010024;28;20458;-69
2024/03/04 02:52:22;;;;;;;24.85;15.32;;;5.40;99.90;;;;;;5009420;28;20455;-69
2024/03/04 02:54:47;;;;;;;23.30;15.07;;;5.40;99.90;;;;;;5010057;28;20120;-69
2024/03/04 02:57:15;;;;;;;27.27;15.82;;;5.40;99.90;;;;;;5010039;28;20014;-71
2024/03/04 02:59:42;;;;;;;24.42;14.80;;;5.40;99.90;;;;;;5009691;28;20026;-68
2024/03/04 03:02:08;;;;;;;20.70;13.75;;;5.40;99.90;;;;;;5008183;28;20026;-69
2024/03/04 03:04:33;;;;;;;27.67;15.43;;;5.50;99.90;;;;;;5009122;28;20099;-70
2024/03/04 03:07:00;;;;;;;22.83;14.10;;;5.50;99.90;;;;;;5010215;28;20083;-69
2024/03/04 03:09:26;;;;;;;23.35;14.25;;;5.50;99.90;;;;;;4990686;28;20017;-70
2024/03/04 03:11:51;;;;;;;23.50;13.85;;;5.40;99.90;;;;;;5010318;28;20017;-70
2024/03/04 03:14:17;;;;;;;24.98;14.63;;;5.40;99.90;;;;;;5008888;28;20018;-70
2024/03/04 03:16:42;;;;;;;26.92;14.70;;;5.40;99.90;;;;;;5010456;28;20470;-70
2024/03/04 03:19:23;;;;;;;22.77;14.23;;;5.30;99.90;;;;;;4997481;28;20108;-70
2024/03/04 03:21:49;;;;;;;24.02;14.50;;;5.30;99.90;;;;;;5009783;28;20033;-70
2024/03/04 03:24:15;;;;;;;23.33;14.48;;;5.30;99.90;;;;;;5009931;28;20371;-70
2024/03/04 03:26:40;;;;;;;21.48;13.90;;;5.20;99.90;;;;;;5007277;28;20030;-70
2024/03/04 03:29:06;;;;;;;22.38;14.68;;;5.30;99.90;;;;;;5009646;28;20080;-70
2024/03/04 03:31:32;;;;;;;24.05;13.75;;;5.30;99.90;;;;;;5008340;28;20026;-70
2024/03/04 03:33:57;;;;;;;22.17;13.52;;;5.40;99.90;;;;;;5010290;28;20121;-70
2024/03/04 03:36:23;;;;;;;24.20;14.40;;;5.50;99.90;;;;;;5010429;28;20375;-70
2024/03/04 03:38:50;;;;;;;24.25;13.93;;;5.50;99.90;;;;;;5014071;28;20022;-70
2024/03/04 03:41:16;;;;;;;23.20;14.15;;;5.60;99.90;;;;;;5012686;28;20026;-70
2024/03/04 03:43:41;;;;;;;21.63;13.60;;;5.70;99.90;;;;;;5013273;28;20030;-70
2024/03/04 03:46:07;;;;;;;21.35;13.10;;;5.80;99.90;;;;;;5013949;28;20091;-70
2024/03/04 03:48:32;;;;;;;23.95;15.38;;;5.90;99.90;;;;;;5012808;28;20065;-70
2024/03/04 03:50:58;;;;;;;23.83;14.60;;;5.90;99.90;;;;;;5012839;28;20053;-70
2024/03/04 03:53:25;;;;;;;24.25;15.45;;;6.00;99.90;;;;;;5010404;28;20050;-70
2024/03/04 03:55:51;;;;;;;23.25;15.50;;;6.10;99.90;;;;;;5013367;28;20440;-70
2024/03/04 03:58:16;;;;;;;25.70;16.20;;;6.20;99.90;;;;;;4994688;28;20025;-70
2024/03/04 04:00:43;;;;;;;24.88;15.98;;;6.30;99.90;;;;;;5010918;28;20021;-70
2024/03/04 04:03:08;;;;;;;24.90;15.95;;;6.40;99.90;;;;;;5003230;28;20083;-69
2024/03/04 04:05:34;;;;;;;26.67;17.42;;;6.50;99.90;;;;;;5012640;28;20025;-70
2024/03/04 04:08:00;;;;;;;28.80;17.00;;;6.50;99.90;;;;;;5013967;28;20477;-70
2024/03/04 04:10:25;;;;;;;28.05;17.65;;;6.60;99.90;;;;;;5010958;28;20105;-69
2024/03/04 04:12:54;;;;;;;29.88;18.00;;;6.60;99.90;;;;;;5013448;28;20022;-70
2024/03/04 04:15:19;;;;;;;25.95;16.88;;;6.70;99.90;;;;;;5011829;28;20041;-69
2024/03/04 04:17:45;;;;;;;30.25;18.50;;;6.80;99.90;;;;;;5013177;28;20049;-70
2024/03/04 04:20:12;;;;;;;26.42;16.73;;;6.80;99.90;;;;;;5012520;28;20503;-70
2024/03/04 04:22:37;;;;;;;26.27;16.92;;;6.90;99.90;;;;;;5011978;28;20486;-69
2024/03/04 04:25:04;;;;;;;26.02;17.52;;;6.90;99.90;;;;;;5012749;28;20038;-70
2024/03/04 04:27:29;;;;;;;29.98;17.52;;;7.00;99.90;;;;;;5010536;28;20049;-71
2024/03/04 04:29:55;;;;;;;28.00;17.25;;;7.00;99.90;;;;;;5012731;28;20635;-70
2024/03/04 04:32:20;;;;;;;28.25;18.48;;;7.00;99.90;;;;;;5013829;28;20033;-71
2024/03/04 04:34:46;;;;;;;30.67;19.67;;;7.10;99.90;;;;;;5013236;28;20113;-70
2024/03/04 04:37:12;;;;;;;28.00;18.42;;;7.20;99.90;;;;;;5013525;28;20071;-69
2024/03/04 04:39:40;;;;;;;27.90;18.42;;;7.30;99.90;;;;;;5011629;28;20128;-70
2024/03/04 04:42:07;;;;;;;28.73;18.30;;;7.30;99.90;;;;;;5013615;28;20104;-71
2024/03/04 04:44:33;;;;;;;30.58;19.20;;;7.30;99.90;;;;;;5011797;28;20041;-71
2024/03/04 04:46:59;;;;;;;33.10;19.13;;;7.30;99.90;;;;;;5013404;28;20041;-70
2024/03/04 04:49:25;;;;;;;29.88;19.63;;;7.30;99.90;;;;;;5011764;28;20026;-70
2024/03/04 04:51:50;;;;;;;29.35;18.83;;;7.30;99.90;;;;;;5018857;28;20455;-70
2024/03/04 04:54:16;;;;;;;33.42;21.70;;;7.30;99.90;;;;;;5011064;28;20042;-70
2024/03/04 04:56:42;;;;;;;28.52;19.08;;;7.30;99.90;;;;;;5011635;28;20030;-70
2024/03/04 04:59:08;;;;;;;32.78;21.58;;;7.40;99.90;;;;;;5012036;28;20032;-71
2024/03/04 05:01:34;;;;;;;33.92;20.67;;;7.40;99.90;;;;;;5009293;28;20014;-70
2024/03/04 05:04:00;;;;;;;32.95;19.98;;;7.50;99.90;;;;;;5012791;28;20173;-70
2024/03/04 05:06:25;;;;;;;32.17;20.65;;;7.50;99.90;;;;;;5011080;28;20371;-70
2024/03/04 05:08:51;;;;;;;34.60;20.58;;;7.50;99.90;;;;;;5010691;28;20435;-70
2024/03/04 05:11:17;;;;;;;33.22;21.25;;;7.50;99.90;;;;;;5010926;28;20022;-70
2024/03/04 05:13:43;;;;;;;33.67;21.48;;;7.50;99.90;;;;;;5012033;28;20014;-70
2024/03/04 05:16:10;;;;;;;30.77;18.73;;;7.60;99.90;;;;;;5011492;28;20064;-70
2024/03/04 05:18:35;;;;;;;32.15;20.08;;;7.50;99.90;;;;;;5000712;28;20114;-70
2024/03/04 05:21:04;;;;;;;41.45;23.17;;;7.50;99.90;;;;;;5014384;28;20121;-70
2024/03/04 05:23:30;;;;;;;35.47;21.95;;;7.50;99.90;;;;;;5021956;28;20025;-69
2024/03/04 05:25:56;;;;;;;36.22;21.70;;;7.60;99.90;;;;;;5021844;28;20469;-69
2024/03/04 05:28:23;;;;;;;36.65;22.52;;;7.60;99.90;;;;;;5019679;28;20026;-69
2024/03/04 05:30:49;;;;;;;34.75;20.52;;;7.60;99.90;;;;;;5019036;28;20026;-69
2024/03/04 05:33:15;;;;;;;40.28;24.77;;;7.60;99.90;;;;;;5024077;28;20370;-69
2024/03/04 05:35:41;;;;;;;42.03;26.40;;;7.80;99.90;;;;;;5018708;28;20093;-68
2024/03/04 05:38:06;;;;;;;40.10;24.05;;;7.80;99.90;;;;;;5020152;28;20105;-68
2024/03/04 05:40:32;;;;;;;40.08;25.17;;;7.80;99.90;;;;;;5020304;28;20498;-67
2024/03/04 05:42:58;;;;;;;42.65;25.33;;;7.70;99.90;;;;;;5021830;28;20336;-68
2024/03/04 05:45:23;;;;;;;46.67;28.20;;;7.80;99.90;;;;;;5003025;28;20509;-68
2024/03/04 05:47:49;;;;;;;46.10;27.50;;;7.80;99.90;;;;;;5022402;28;20478;-70
2024/03/04 05:50:14;;;;;;;47.03;28.23;;;7.80;99.90;;;;;;5017711;28;20034;-69
2024/03/04 05:52:46;;;;;;;46.95;28.65;;;7.80;99.90;;;;;;5019957;28;20443;-69
2024/03/04 05:55:13;;;;;;;46.30;27.92;;;7.80;99.90;;;;;;5019465;28;20112;-71
2024/03/04 05:57:41;;;;;;;54.65;29.95;;;7.80;99.90;;;;;;5020506;28;20015;-70
2024/03/04 06:00:12;;;;;;;48.80;29.30;;;7.90;99.90;;;;;;5000750;28;20361;-70
2024/03/04 06:02:39;;;;;;;51.22;29.38;;;7.80;99.90;;;;;;5020865;28;20455;-70
2024/03/04 06:05:05;;;;;;;58.50;30.73;;;7.80;99.90;;;;;;5001160;28;20289;-69
2024/03/04 06:07:31;;;;;;;53.67;31.48;;;7.90;99.90;;;;;;5019016;28;20057;-69
2024/03/04 06:09:57;;;;;;;56.95;32.30;;;7.90;99.90;;;;;;5018615;28;20057;-70
2024/03/04 06:12:22;;;;;;;52.60;29.00;;;8.00;99.90;;;;;;5018714;28;20112;-70
2024/03/04 06:14:48;;;;;;;58.67;32.40;;;8.00;99.90;;;;;;5019240;28;20025;-69
2024/03/04 06:17:13;;;;;;;57.10;31.92;;;7.90;99.90;;;;;;5019447;28;20022;-70
2024/03/04 06:19:39;;;;;;;61.38;32.65;;;8.00;99.90;;;;;;5014308;28;20026;-70
2024/03/04 06:22:05;;;;;;;53.10;32.30;;;8.00;99.90;;;;;;5009849;28;20367;-69
2024/03/04 06:24:34;;;;;;;61.55;33.10;;;8.00;99.90;;;;;;5009350;28;20367;-69
2024/03/04 06:27:02;;;;;;;64.03;34.10;;;8.10;99.90;;;;;;5007666;28;20379;-69
2024/03/04 06:29:32;;;;;;;61.92;33.40;;;8.00;99.90;;;;;;5009462;28;20096;-70
2024/03/04 06:31:58;;;;;;;64.03;34.40;;;8.10;99.90;;;;;;5010257;28;20036;-72
2024/03/04 06:34:24;;;;;;;64.28;34.80;;;8.10;99.90;;;;;;5009173;28;20025;-79
2024/03/04 06:36:50;;;;;;;63.75;34.67;;;8.10;99.90;;;;;;5009281;28;20025;-71
2024/03/04 06:39:16;;;;;;;62.20;35.10;;;8.10;99.90;;;;;;5009238;28;20038;-71
2024/03/04 06:41:43;;;;;;;64.88;34.17;;;8.00;99.90;;;;;;5010621;28;20088;-77
2024/03/04 06:44:09;;;;;;;66.22;35.88;;;8.00;99.90;;;;;;4992579;28;20061;-72
2024/03/04 06:46:34;;;;;;;67.05;34.50;;;8.00;99.90;;;;;;5008841;28;20494;-71
2024/03/04 06:49:00;;;;;;;71.10;36.28;;;8.00;99.90;;;;;;5010388;28;20029;-76
2024/03/04 06:51:28;;;;;;;68.78;35.00;;;8.00;99.90;;;;;;5009418;28;20010;-79
2024/03/04 06:53:53;;;;;;;69.07;36.75;;;8.00;99.90;;;;;;4969551;28;1106705;-79
2024/03/04 06:56:21;;;;;;;67.15;34.60;;;8.10;99.90;;;;;;5009433;28;20426;-78
2024/03/04 06:58:46;;;;;;;67.85;36.50;;;8.10;99.90;;;;;;5013224;28;20022;-73
2024/03/04 07:01:12;;;;;;;68.85;36.60;;;8.20;99.90;;;;;;5009702;28;20025;-70
2024/03/04 07:03:40;;;;;;;70.43;36.30;;;8.30;99.90;;;;;;5010446;28;20037;-75
2024/03/04 07:06:07;;;;;;;67.68;35.45;;;8.20;99.90;;;;;;5008808;28;20101;-69
2024/03/04 07:08:33;;;;;;;72.90;35.65;;;8.20;99.90;;;;;;5009906;28;20084;-69
2024/03/04 07:10:59;;;;;;;62.42;33.13;;;8.20;99.90;;;;;;5007899;28;20022;-70
2024/03/04 07:13:25;;;;;;;65.40;35.58;;;8.10;99.90;;;;;;5009836;28;20075;-68
2024/03/04 07:15:51;;;;;;;74.32;36.65;;;8.10;99.90;;;;;;5010029;28;20429;-69
2024/03/04 07:18:16;;;;;;;64.45;35.90;;;8.20;99.90;;;;;;5006425;28;20130;-68
2024/03/04 07:20:42;;;;;;;67.25;35.13;;;8.20;99.90;;;;;;5010173;28;20026;-68
2024/03/04 07:23:08;;;;;;;69.80;36.78;;;8.20;99.90;;;;;;5011596;28;20107;-68
2024/03/04 07:25:33;;;;;;;73.82;38.47;;;8.20;99.90;;;;;;5009261;28;20022;-69
2024/03/04 07:27:59;;;;;;;65.90;35.08;;;8.20;99.90;;;;;;5007284;28;20029;-69
2024/03/04 07:30:25;;;;;;;70.38;36.88;;;8.20;99.90;;;;;;5008950;28;20052;-69
2024/03/04 07:32:50;;;;;;;65.85;35.65;;;8.20;99.90;;;;;;5010117;28;20026;-69
2024/03/04 07:35:16;;;;;;;71.88;36.28;;;8.20;99.90;;;;;;5009373;28;20036;-70
2024/03/04 07:37:41;;;;;;;70.47;36.67;;;8.20;99.90;;;;;;5010735;28;20372;-75
2024/03/04 07:40:10;;;;;;;69.78;35.92;;;8.10;99.90;;;;;;5008004;28;20085;-76
2024/03/04 07:42:35;;;;;;;67.28;33.97;;;8.10;99.90;;;;;;4992556;28;20041;-76
2024/03/04 07:45:01;;;;;;;68.43;35.10;;;8.10;99.90;;;;;;5010241;28;20459;-77
2024/03/04 07:47:26;;;;;;;69.93;36.08;;;8.20;99.90;;;;;;5009695;28;20018;-70
2024/03/04 07:49:52;;;;;;;61.78;33.13;;;8.30;99.90;;;;;;5009454;28;20026;-70
2024/03/04 07:52:18;;;;;;;67.40;34.63;;;8.20;99.90;;;;;;5011568;28;20022;-71
2024/03/04 07:54:44;;;;;;;63.60;32.40;;;8.20;99.90;;;;;;5006836;28;20060;-70
2024/03/04 07:57:10;;;;;;;70.03;33.88;;;8.20;99.90;;;;;;5010342;28;20463;-70
2024/03/04 07:59:35;;;;;;;66.53;33.70;;;8.20;99.90;;;;;;5009873;28;20751;-70
2024/03/04 08:02:03;;;;;;;67.22;34.13;;;8.30;99.90;;;;;;5009355;28;20021;-70
2024/03/04 08:04:29;;;;;;;63.85;33.55;;;8.30;99.90;;;;;;5008945;28;20041;-71
2024/03/04 08:06:54;;;;;;;71.30;34.95;;;8.30;99.90;;;;;;5009627;28;20022;-70
2024/03/04 08:09:20;;;;;;;62.15;34.42;;;8.40;99.90;;;;;;5009090;28;20030;-69
2024/03/04 08:11:45;;;;;;;63.78;33.65;;;8.40;99.90;;;;;;5010408;28;20017;-74
2024/03/04 08:14:11;;;;;;;63.45;33.08;;;8.40;99.90;;;;;;5009908;28;20076;-73
2024/03/04 08:16:36;;;;;;;66.25;32.63;;;8.40;99.90;;;;;;4993768;28;20022;-73
2024/03/04 08:19:04;;;;;;;61.35;32.33;;;8.40;99.90;;;;;;5009627;28;20069;-72
2024/03/04 08:21:29;;;;;;;63.55;32.50;;;8.40;99.90;;;;;;5005950;28;20018;-71
2024/03/04 08:23:55;;;;;;;64.13;33.58;;;8.40;99.90;;;;;;5013635;28;20478;-73
2024/03/04 08:26:21;;;;;;;62.90;33.30;;;8.50;99.90;;;;;;5012771;28;20057;-72
2024/03/04 08:28:47;;;;;;;65.32;33.35;;;8.50;99.90;;;;;;5011371;28;20014;-71
2024/03/04 08:31:17;;;;;;;65.55;35.55;;;8.50;99.90;;;;;;5013343;28;20367;-70
2024/03/04 08:33:43;;;;;;;;;;;8.60;99.90;;;;;;4984194;28;20482;-74
2024/03/04 08:36:08;;;;;;;65.00;33.53;;;8.60;99.90;;;;;;5011261;28;19902;-71
2024/03/04 08:38:34;;;;;;;62.30;31.92;;;8.70;99.90;;;;;;5013813;28;20100;-71
2024/03/04 08:41:02;;;;;;;66.80;34.05;;;8.70;99.90;;;;;;5017689;28;20061;-72
2024/03/04 08:43:29;;;;;;;62.53;34.75;;;8.70;99.90;;;;;;5027266;28;20022;-72
2024/03/04 08:45:54;;;;;;;67.78;34.45;;;8.70;99.90;;;;;;5021573;28;20030;-72
2024/03/04 08:48:20;;;;;;;66.85;35.67;;;8.70;99.90;;;;;;5013644;28;20513;-71
2024/03/04 08:50:46;;;;;;;68.55;34.05;;;8.70;99.90;;;;;;5006967;28;20554;-70
2024/03/04 08:53:12;;;;;;;68.28;34.97;;;8.70;99.90;;;;;;4993367;28;20042;-73
2024/03/04 08:55:37;;;;;;;70.65;35.47;;;8.70;99.90;;;;;;5009765;28;20026;-70
2024/03/04 08:58:03;;;;;;;70.15;35.05;;;8.70;99.90;;;;;;5003502;28;20057;-70
2024/03/04 09:00:28;;;;;;;70.32;35.85;;;8.70;99.90;;;;;;5000125;28;20534;-71
2024/03/04 09:02:54;;;;;;;65.43;35.30;;;8.70;99.90;;;;;;4995533;28;20037;-72
2024/03/04 09:05:21;;;;;;;68.03;37.40;;;8.60;99.90;;;;;;5006339;28;20050;-71
2024/03/04 09:07:49;;;;;;;72.18;36.05;;;8.60;99.90;;;;;;5012827;28;20025;-70
2024/03/04 09:10:16;;;;;;;68.15;35.35;;;8.50;99.90;;;;;;5011725;28;20026;-70
2024/03/04 09:12:42;;;;;;;66.28;36.25;;;8.60;99.90;;;;;;5005538;28;20025;-71
2024/03/04 09:15:12;;;;;;;71.88;37.53;;;8.50;99.90;;;;;;4992678;28;20030;-70
2024/03/04 09:17:39;;;;;;;67.50;35.78;;;8.50;99.90;;;;;;5020711;28;20061;-71
2024/03/04 09:20:06;;;;;;;76.75;36.45;;;8.50;99.90;;;;;;5021179;28;20036;-69
2024/03/04 09:22:31;;;;;;;69.15;35.35;;;8.70;99.90;;;;;;5012119;28;20025;-69
2024/03/04 09:24:57;;;;;;;72.32;35.88;;;8.70;99.90;;;;;;5015250;28;20498;-69
2024/03/04 09:27:23;;;;;;;65.10;33.58;;;8.80;99.90;;;;;;5017958;28;20052;-71
2024/03/04 09:29:48;;;;;;;72.07;36.72;;;8.90;99.90;;;;;;5022628;28;20017;-70
2024/03/04 09:32:14;;;;;;;66.45;35.35;;;9.00;99.90;;;;;;5017001;28;20486;-70
2024/03/04 09:34:39;;;;;;;74.40;37.25;;;9.10;99.90;;;;;;5017007;28;20025;-70
2024/03/04 09:37:05;;;;;;;72.90;38.05;;;9.20;99.90;;;;;;5021243;28;20028;-70
2024/03/04 09:39:32;;;;;;;74.78;36.58;;;9.30;99.90;;;;;;5013055;28;20026;-71
2024/03/04 09:41:58;;;;;;;82.75;39.85;;;9.30;99.90;;;;;;5013547;28;20045;-70
2024/03/04 09:44:27;;;;;;;83.72;41.63;;;9.40;99.90;;;;;;5020419;28;20053;-70
2024/03/04 09:46:54;;;;;;;86.38;41.10;;;9.40;99.90;;;;;;5019703;28;20118;-70
2024/03/04 09:49:23;;;;;;;83.10;40.97;;;9.40;99.90;;;;;;5018907;28;20084;-70
2024/03/04 09:51:51;;;;;;;85.28;41.58;;;9.30;99.90;;;;;;5011361;28;20048;-70
2024/03/04 09:54:18;;;;;;;94.50;44.00;;;9.30;99.90;;;;;;5020135;28;20100;-69
2024/03/04 09:56:44;;;;;;;91.25;42.17;;;9.30;99.90;;;;;;5021305;28;20108;-73
2024/03/04 09:59:10;;;;;;;86.43;42.65;;;9.20;99.90;;;;;;5021937;28;20181;-70
2024/03/04 10:01:36;;;;;;;85.55;41.17;;;9.20;99.90;;;;;;5019034;28;20422;-69
2024/03/04 10:04:03;;;;;;;94.20;43.63;;;9.30;99.90;;;;;;5021282;28;20035;-70
2024/03/04 10:06:29;;;;;;;92.30;41.47;;;9.40;99.90;;;;;;5018568;28;20072;-69
2024/03/04 10:08:55;;;;;;;86.65;41.38;;;9.40;99.90;;;;;;5019783;28;20026;-69
2024/03/04 10:11:20;;;;;;;81.07;40.45;;;9.50;99.90;;;;;;5021113;28;20025;-69
2024/03/04 10:13:46;;;;;;;81.68;41.22;;;9.60;99.90;;;;;;5021740;28;20451;-70
2024/03/04 10:16:15;;;;;;;86.00;41.80;;;9.70;99.90;;;;;;5020201;28;20029;-71
2024/03/04 10:18:40;;;;;;;85.13;42.95;;;9.70;99.90;;;;;;5016972;28;20033;-70
2024/03/04 10:21:07;;;;;;;87.15;41.55;;;9.80;99.90;;;;;;5016629;28;20034;-69
2024/03/04 10:23:34;;;;;;;85.00;42.38;;;9.80;99.90;;;;;;5004037;28;20056;-69
2024/03/04 10:26:10;;;;;;;85.85;40.55;;;9.80;99.90;;;;;;5003672;28;20109;-70
2024/03/04 10:28:40;;;;;;;83.80;41.08;;;9.80;99.90;;;;;;5018877;28;20033;-70
2024/03/04 10:31:09;;;;;;;78.85;41.25;;;9.80;99.90;;;;;;5022525;28;20458;-70
2024/03/04 10:33:40;;;;;;;88.17;42.10;;;9.80;99.90;;;;;;5018179;28;20026;-69
2024/03/04 10:36:20;;;;;;;85.15;42.97;;;9.80;99.90;;;;;;5019525;28;20100;-70
2024/03/04 10:38:47;;;;;;;83.78;43.10;;;9.70;99.90;;;;;;5015398;28;20037;-70
2024/03/04 10:41:20;;;;;;;87.22;43.92;;;9.60;99.90;;;;;;5019098;28;20025;-71
2024/03/04 10:43:46;;;;;;;81.68;41.10;;;9.70;99.90;;;;;;5019606;28;20029;-71
2024/03/04 10:46:14;;;;;;;90.32;43.47;;;9.60;99.90;;;;;;5020934;28;20029;-70
2024/03/04 10:48:46;;;;;;;81.18;42.38;;;9.70;99.90;;;;;;5023995;28;20026;-69
2024/03/04 10:51:13;;;;;;;86.47;41.95;;;9.60;99.90;;;;;;5021983;28;20072;-70
2024/03/04 10:53:39;;;;;;;80.40;41.22;;;9.50;99.90;;;;;;5024338;28;20045;-70
2024/03/04 10:56:10;;;;;;;88.10;43.70;;;9.50;99.90;;;;;;5026792;28;20025;-70
2024/03/04 10:58:42;;;;;;;85.95;42.33;;;9.50;99.90;;;;;;5020093;28;20036;-70
2024/03/04 11:01:11;;;;;;;83.47;41.72;;;9.40;99.90;;;;;;5019891;28;20022;-69
2024/03/04 11:03:42;;;;;;;95.80;45.38;;;9.50;99.90;;;;;;5018365;28;20036;-70
2024/03/04 11:06:15;;;;;;;78.93;40.28;;;9.60;99.90;;;;;;5002707;28;20156;-70
2024/03/04 11:08:49;;;;;;;87.93;40.40;;;9.60;99.90;;;;;;5019104;28;20021;-69
2024/03/04 11:11:34;;;;;;;89.53;40.92;;;9.60;99.90;;;;;;5019668;28;20377;-68
2024/03/04 11:14:23;;;;;;;84.30;39.75;;;9.50;99.90;;;;;;5019492;28;20030;-70
2024/03/04 11:17:20;;;;;;;83.88;41.50;;;9.50;99.90;;;;;;5018004;28;20029;-70
2024/03/04 11:19:53;;;;;;;81.80;40.20;;;9.50;99.90;;;;;;4996105;28;20037;-69
2024/03/04 11:22:19;;;;;;;83.97;41.22;;;9.40;99.90;;;;;;5016700;28;20030;-68
2024/03/04 11:24:46;;;;;;;86.65;41.35;;;9.50;99.90;;;;;;5018026;28;20386;-71
2024/03/04 11:27:15;;;;;;;79.88;38.80;;;9.50;99.90;;;;;;5018818;28;20128;-70
2024/03/04 11:29:42;;;;;;;85.53;40.83;;;9.60;99.90;;;;;;5017898;28;20096;-69
2024/03/04 11:32:09;;;;;;;89.68;42.85;;;9.70;99.90;;;;;;5019849;28;20105;-69
2024/03/04 11:35:05;;;;;;;87.25;42.15;;;9.70;99.90;;;;;;5017235;28;20048;-70
2024/03/04 11:37:51;;;;;;;90.45;42.17;;;9.70;99.90;;;;;;5015367;28;20021;-70
2024/03/04 11:40:18;;;;;;;85.38;41.53;;;9.70;99.90;;;;;;5011536;28;20025;-69
2024/03/04 11:42:47;;;;;;;84.32;41.55;;;9.60;99.90;;;;;;5020346;28;20020;-68
2024/03/04 11:45:32;;;;;;;80.75;39.22;;;9.60;99.90;;;;;;5000344;28;20371;-69
2024/03/04 11:47:59;;;;;;;82.80;39.50;;;9.60;99.90;;;;;;5018778;28;20033;-69
2024/03/04 11:50:48;;;;;;;79.68;39.60;;;9.60;99.90;;;;;;5015432;28;20050;-70
2024/03/04 11:53:32;;;;;;;77.00;37.92;;;9.60;99.90;;;;;;5016286;28;20042;-69
2024/03/04 11:55:58;;;;;;;80.80;39.33;;;9.50;99.90;;;;;;5017628;28;20022;-70
2024/03/04 11:58:26;;;;;;;83.53;40.92;;;9.50;99.90;;;;;;5001417;28;20155;-70
2024/03/04 12:00:53;;;;;;;72.90;38.03;;;9.60;99.90;;;;;;5018778;28;20034;-70
2024/03/04 12:03:19;;;;;;;72.53;37.63;;;9.60;99.90;;;;;;5004972;28;20018;-73
2024/03/04 12:05:46;;;;;;;73.50;37.55;;;9.70;99.90;;;;;;5023091;28;20446;-75
2024/03/04 12:08:13;;;;;;;77.38;38.75;;;9.70;99.90;;;;;;5020660;28;20025;-74
2024/03/04 12:10:39;;;;;;;71.82;37.97;;;9.90;99.90;;;;;;5021900;28;20021;-74
2024/03/04 12:13:05;;;;;;;77.28;37.33;;;9.90;99.90;;;;;;5020807;28;20978;-70
2024/03/04 12:15:30;;;;;;;72.93;38.25;;;10.00;99.90;;;;;;5015830;28;20098;-76
2024/03/04 12:17:56;;;;;;;72.68;39.17;;;9.90;99.90;;;;;;4995711;28;20022;-72
2024/03/04 12:20:24;;;;;;;75.25;38.70;;;9.90;99.90;;;;;;5011633;28;20504;-70
2024/03/04 12:22:52;;;;;;;71.35;35.90;;;9.90;99.90;;;;;;5013513;28;20109;-68
2024/03/04 12:25:22;;;;;;;73.53;36.78;;;9.90;99.90;;;;;;5012096;28;20112;-75
2024/03/04 12:27:55;;;;;;;69.28;37.17;;;9.80;99.90;;;;;;5013165;28;20030;-71
2024/03/04 12:30:23;;;;;;;72.75;36.28;;;9.80;99.90;;;;;;5005004;28;20025;-69
2024/03/04 12:32:50;;;;;;;66.53;33.97;;;9.70;99.90;;;;;;5012594;28;20072;-72
2024/03/04 12:35:32;;;;;;;72.55;36.42;;;9.80;99.90;;;;;;4994239;28;20064;-70
2024/03/04 12:38:01;;;;;;;72.75;36.55;;;9.80;99.90;;;;;;5010170;28;20018;-71
2024/03/04 12:40:27;;;;;;;66.32;34.63;;;9.90;99.90;;;;;;5011317;28;20026;-72
2024/03/04 12:43:02;;;;;;;68.40;34.53;;;9.90;99.90;;;;;;5022536;28;20026;-71